sensor_id;sensor_type;location;lat;lon;timestamp;P1;durP1;ratioP1;P2;durP2;ratioP2
21114;SDS011;10715;48.546;9.896;2023-11-18T00:01:55;0.70;;;0.40;;
21114;SDS011;10715;48.546;9.896;2023-11-18T00:04:21;0.90;;;0.43;;
21114;SDS011;10715;48.546;9.896;2023-11-18T00:06:47;0.70;;;0.40;;
21114;SDS011;10715;48.546;9.896;2023-11-18T00:09:13;0.77;;;0.40;;
21114;SDS011;10715;48.546;9.896;2023-11-18T00:11:39;1.30;;;0.47;;
21114;SDS011;10715;48.546;9.896;2023-11-18T00:14:06;0.80;;;0.50;;
21114;SDS011;10715;48.546;9.896;2023-11-18T00:16:32;0.60;;;0.37;;
21114;SDS011;10715;48.546;9.896;2023-11-18T00:18:59;1.00;;;0.50;;
21114;SDS011;10715;48.546;9.896;2023-11-18T00:21:26;1.27;;;0.57;;
21114;SDS011;10715;48.546;9.896;2023-11-18T00:23:53;0.90;;;0.50;;
21114;SDS011;10715;48.546;9.896;2023-11-18T00:26:20;1.20;;;0.50;;
21114;SDS011;10715;48.546;9.896;2023-11-18T00:28:46;1.10;;;0.50;;
21114;SDS011;10715;48.546;9.896;2023-11-18T00:31:13;0.80;;;0.40;;
21114;SDS011;10715;48.546;9.896;2023-11-18T00:33:39;0.97;;;0.53;;
21114;SDS011;10715;48.546;9.896;2023-11-18T00:36:06;0.93;;;0.60;;
21114;SDS011;10715;48.546;9.896;2023-11-18T00:38:32;1.03;;;0.53;;
21114;SDS011;10715;48.546;9.896;2023-11-18T00:40:57;0.90;;;0.60;;
21114;SDS011;10715;48.546;9.896;2023-11-18T00:43:23;0.93;;;0.67;;
21114;SDS011;10715;48.546;9.896;2023-11-18T00:45:49;1.80;;;1.40;;
21114;SDS011;10715;48.546;9.896;2023-11-18T00:48:16;1.03;;;0.60;;
21114;SDS011;10715;48.546;9.896;2023-11-18T00:50:42;1.27;;;0.87;;
21114;SDS011;10715;48.546;9.896;2023-11-18T00:53:08;1.63;;;1.13;;
21114;SDS011;10715;48.546;9.896;2023-11-18T00:55:35;1.97;;;0.80;;
21114;SDS011;10715;48.546;9.896;2023-11-18T00:58:01;1.20;;;0.80;;
21114;SDS011;10715;48.546;9.896;2023-11-18T01:00:26;1.27;;;0.80;;
21114;SDS011;10715;48.546;9.896;2023-11-18T01:02:52;1.57;;;1.47;;
21114;SDS011;10715;48.546;9.896;2023-11-18T01:05:19;1.43;;;1.33;;
21114;SDS011;10715;48.546;9.896;2023-11-18T01:07:45;4.37;;;2.07;;
21114;SDS011;10715;48.546;9.896;2023-11-18T01:10:11;1.87;;;1.17;;
21114;SDS011;10715;48.546;9.896;2023-11-18T01:12:39;1.43;;;1.33;;
21114;SDS011;10715;48.546;9.896;2023-11-18T01:15:05;2.70;;;2.17;;
21114;SDS011;10715;48.546;9.896;2023-11-18T01:17:32;1.30;;;1.20;;
21114;SDS011;10715;48.546;9.896;2023-11-18T01:19:58;1.73;;;1.53;;
21114;SDS011;10715;48.546;9.896;2023-11-18T01:22:26;4.57;;;2.37;;
21114;SDS011;10715;48.546;9.896;2023-11-18T01:24:52;2.27;;;2.13;;
21114;SDS011;10715;48.546;9.896;2023-11-18T01:27:17;3.93;;;2.27;;
21114;SDS011;10715;48.546;9.896;2023-11-18T01:29:45;2.93;;;2.67;;
21114;SDS011;10715;48.546;9.896;2023-11-18T01:32:12;3.23;;;2.20;;
21114;SDS011;10715;48.546;9.896;2023-11-18T01:34:39;1.87;;;1.70;;
21114;SDS011;10715;48.546;9.896;2023-11-18T01:37:05;2.10;;;1.40;;
21114;SDS011;10715;48.546;9.896;2023-11-18T01:39:35;2.53;;;1.73;;
21114;SDS011;10715;48.546;9.896;2023-11-18T01:42:01;2.27;;;2.07;;
21114;SDS011;10715;48.546;9.896;2023-11-18T01:44:28;2.07;;;1.87;;
21114;SDS011;10715;48.546;9.896;2023-11-18T01:46:55;1.93;;;1.70;;
21114;SDS011;10715;48.546;9.896;2023-11-18T01:49:22;1.93;;;1.53;;
21114;SDS011;10715;48.546;9.896;2023-11-18T01:51:49;2.23;;;1.37;;
21114;SDS011;10715;48.546;9.896;2023-11-18T01:54:19;3.90;;;1.93;;
21114;SDS011;10715;48.546;9.896;2023-11-18T01:56:48;2.53;;;1.60;;
21114;SDS011;10715;48.546;9.896;2023-11-18T01:59:14;3.13;;;1.67;;
21114;SDS011;10715;48.546;9.896;2023-11-18T02:04:17;1.83;;;1.70;;
21114;SDS011;10715;48.546;9.896;2023-11-18T02:06:45;2.70;;;2.27;;
21114;SDS011;10715;48.546;9.896;2023-11-18T02:09:13;2.47;;;2.27;;
21114;SDS011;10715;48.546;9.896;2023-11-18T02:11:52;2.33;;;1.63;;
21114;SDS011;10715;48.546;9.896;2023-11-18T02:14:21;2.43;;;2.23;;
21114;SDS011;10715;48.546;9.896;2023-11-18T02:16:52;2.77;;;2.10;;
21114;SDS011;10715;48.546;9.896;2023-11-18T02:19:21;4.90;;;4.43;;
21114;SDS011;10715;48.546;9.896;2023-11-18T02:21:49;4.00;;;2.40;;
21114;SDS011;10715;48.546;9.896;2023-11-18T02:24:26;2.50;;;2.30;;
21114;SDS011;10715;48.546;9.896;2023-11-18T02:26:59;5.30;;;2.50;;
21114;SDS011;10715;48.546;9.896;2023-11-18T02:29:26;2.83;;;2.60;;
21114;SDS011;10715;48.546;9.896;2023-11-18T02:31:57;1.67;;;1.40;;
21114;SDS011;10715;48.546;9.896;2023-11-18T02:34:28;3.00;;;2.70;;
21114;SDS011;10715;48.546;9.896;2023-11-18T02:36:58;5.13;;;2.40;;
21114;SDS011;10715;48.546;9.896;2023-11-18T02:39:32;4.97;;;3.50;;
21114;SDS011;10715;48.546;9.896;2023-11-18T02:42:04;2.33;;;1.67;;
21114;SDS011;10715;48.546;9.896;2023-11-18T02:44:35;4.27;;;2.57;;
21114;SDS011;10715;48.546;9.896;2023-11-18T02:47:02;3.93;;;2.67;;
21114;SDS011;10715;48.546;9.896;2023-11-18T02:49:30;2.40;;;1.40;;
21114;SDS011;10715;48.546;9.896;2023-11-18T02:51:56;2.27;;;1.50;;
21114;SDS011;10715;48.546;9.896;2023-11-18T02:54:22;3.10;;;1.73;;
21114;SDS011;10715;48.546;9.896;2023-11-18T02:56:48;2.17;;;1.80;;
21114;SDS011;10715;48.546;9.896;2023-11-18T02:59:15;2.33;;;2.13;;
21114;SDS011;10715;48.546;9.896;2023-11-18T03:01:42;1.30;;;0.97;;
21114;SDS011;10715;48.546;9.896;2023-11-18T03:04:07;1.27;;;1.17;;
21114;SDS011;10715;48.546;9.896;2023-11-18T03:06:33;1.97;;;1.27;;
21114;SDS011;10715;48.546;9.896;2023-11-18T03:09:00;2.50;;;1.43;;
21114;SDS011;10715;48.546;9.896;2023-11-18T03:11:27;1.10;;;0.90;;
21114;SDS011;10715;48.546;9.896;2023-11-18T03:13:56;4.03;;;0.70;;
21114;SDS011;10715;48.546;9.896;2023-11-18T03:16:22;1.77;;;1.67;;
21114;SDS011;10715;48.546;9.896;2023-11-18T03:18:49;1.20;;;0.87;;
21114;SDS011;10715;48.546;9.896;2023-11-18T03:21:15;1.00;;;0.63;;
21114;SDS011;10715;48.546;9.896;2023-11-18T03:23:42;0.93;;;0.60;;
21114;SDS011;10715;48.546;9.896;2023-11-18T03:26:08;1.17;;;0.60;;
21114;SDS011;10715;48.546;9.896;2023-11-18T03:28:35;4.37;;;0.60;;
21114;SDS011;10715;48.546;9.896;2023-11-18T03:31:02;1.57;;;1.10;;
21114;SDS011;10715;48.546;9.896;2023-11-18T03:33:29;1.00;;;0.70;;
21114;SDS011;10715;48.546;9.896;2023-11-18T03:35:55;1.50;;;0.90;;
21114;SDS011;10715;48.546;9.896;2023-11-18T03:38:21;1.20;;;0.57;;
21114;SDS011;10715;48.546;9.896;2023-11-18T03:40:47;1.00;;;0.60;;
21114;SDS011;10715;48.546;9.896;2023-11-18T03:43:13;0.90;;;0.67;;
21114;SDS011;10715;48.546;9.896;2023-11-18T03:45:39;1.20;;;0.80;;
21114;SDS011;10715;48.546;9.896;2023-11-18T03:48:05;0.87;;;0.50;;
21114;SDS011;10715;48.546;9.896;2023-11-18T03:50:35;1.00;;;0.50;;
21114;SDS011;10715;48.546;9.896;2023-11-18T03:53:00;1.20;;;0.83;;
21114;SDS011;10715;48.546;9.896;2023-11-18T03:55:28;2.03;;;0.70;;
21114;SDS011;10715;48.546;9.896;2023-11-18T03:57:55;2.03;;;0.70;;
21114;SDS011;10715;48.546;9.896;2023-11-18T04:00:22;1.20;;;1.10;;
21114;SDS011;10715;48.546;9.896;2023-11-18T04:02:54;1.60;;;0.80;;
21114;SDS011;10715;48.546;9.896;2023-11-18T04:05:20;1.10;;;0.60;;
21114;SDS011;10715;48.546;9.896;2023-11-18T04:07:46;0.80;;;0.50;;
21114;SDS011;10715;48.546;9.896;2023-11-18T04:10:12;1.57;;;0.90;;
21114;SDS011;10715;48.546;9.896;2023-11-18T04:12:37;1.33;;;0.97;;
21114;SDS011;10715;48.546;9.896;2023-11-18T04:15:04;1.67;;;1.33;;
21114;SDS011;10715;48.546;9.896;2023-11-18T04:17:32;1.37;;;0.90;;
21114;SDS011;10715;48.546;9.896;2023-11-18T04:19:58;2.00;;;0.80;;
21114;SDS011;10715;48.546;9.896;2023-11-18T04:22:24;1.30;;;0.90;;
21114;SDS011;10715;48.546;9.896;2023-11-18T04:24:50;1.67;;;1.50;;
21114;SDS011;10715;48.546;9.896;2023-11-18T04:27:16;1.80;;;1.33;;
21114;SDS011;10715;48.546;9.896;2023-11-18T04:29:42;2.10;;;1.20;;
21114;SDS011;10715;48.546;9.896;2023-11-18T04:32:08;1.20;;;1.00;;
21114;SDS011;10715;48.546;9.896;2023-11-18T04:34:37;0.93;;;0.70;;
21114;SDS011;10715;48.546;9.896;2023-11-18T04:37:03;2.20;;;1.00;;
21114;SDS011;10715;48.546;9.896;2023-11-18T04:39:31;1.30;;;1.00;;
21114;SDS011;10715;48.546;9.896;2023-11-18T04:41:57;1.30;;;1.00;;
21114;SDS011;10715;48.546;9.896;2023-11-18T04:44:23;1.40;;;1.07;;
21114;SDS011;10715;48.546;9.896;2023-11-18T04:46:49;1.40;;;0.83;;
21114;SDS011;10715;48.546;9.896;2023-11-18T04:49:15;1.13;;;0.77;;
21114;SDS011;10715;48.546;9.896;2023-11-18T04:51:41;1.40;;;0.60;;
21114;SDS011;10715;48.546;9.896;2023-11-18T04:54:06;1.40;;;0.90;;
21114;SDS011;10715;48.546;9.896;2023-11-18T04:56:35;1.63;;;0.90;;
21114;SDS011;10715;48.546;9.896;2023-11-18T04:59:04;1.40;;;0.93;;
21114;SDS011;10715;48.546;9.896;2023-11-18T05:01:31;1.93;;;1.43;;
21114;SDS011;10715;48.546;9.896;2023-11-18T05:03:57;1.20;;;0.83;;
21114;SDS011;10715;48.546;9.896;2023-11-18T05:06:22;1.80;;;1.50;;
21114;SDS011;10715;48.546;9.896;2023-11-18T05:08:48;2.20;;;1.00;;
21114;SDS011;10715;48.546;9.896;2023-11-18T05:11:14;1.23;;;0.73;;
21114;SDS011;10715;48.546;9.896;2023-11-18T05:13:40;3.80;;;1.43;;
21114;SDS011;10715;48.546;9.896;2023-11-18T05:16:06;3.17;;;1.60;;
21114;SDS011;10715;48.546;9.896;2023-11-18T05:18:32;1.30;;;1.00;;
21114;SDS011;10715;48.546;9.896;2023-11-18T05:21:01;1.87;;;1.40;;
21114;SDS011;10715;48.546;9.896;2023-11-18T05:23:30;1.90;;;1.70;;
21114;SDS011;10715;48.546;9.896;2023-11-18T05:25:56;3.33;;;1.23;;
21114;SDS011;10715;48.546;9.896;2023-11-18T05:28:23;3.50;;;2.50;;
21114;SDS011;10715;48.546;9.896;2023-11-18T05:30:49;4.10;;;2.40;;
21114;SDS011;10715;48.546;9.896;2023-11-18T05:33:16;2.83;;;2.17;;
21114;SDS011;10715;48.546;9.896;2023-11-18T05:35:43;3.20;;;3.00;;
21114;SDS011;10715;48.546;9.896;2023-11-18T05:38:19;2.70;;;2.43;;
21114;SDS011;10715;48.546;9.896;2023-11-18T05:40:47;5.40;;;2.73;;
21114;SDS011;10715;48.546;9.896;2023-11-18T05:43:25;4.43;;;2.57;;
21114;SDS011;10715;48.546;9.896;2023-11-18T05:45:56;2.30;;;2.00;;
21114;SDS011;10715;48.546;9.896;2023-11-18T05:48:45;3.37;;;2.93;;
21114;SDS011;10715;48.546;9.896;2023-11-18T05:51:12;4.47;;;2.50;;
21114;SDS011;10715;48.546;9.896;2023-11-18T05:53:41;4.87;;;4.40;;
21114;SDS011;10715;48.546;9.896;2023-11-18T05:56:10;3.97;;;3.27;;
21114;SDS011;10715;48.546;9.896;2023-11-18T05:58:36;3.47;;;2.53;;
21114;SDS011;10715;48.546;9.896;2023-11-18T06:01:03;3.50;;;3.20;;
21114;SDS011;10715;48.546;9.896;2023-11-18T06:03:30;4.60;;;3.63;;
21114;SDS011;10715;48.546;9.896;2023-11-18T06:05:56;4.37;;;3.33;;
21114;SDS011;10715;48.546;9.896;2023-11-18T06:08:22;3.47;;;2.70;;
21114;SDS011;10715;48.546;9.896;2023-11-18T06:10:48;4.30;;;2.10;;
21114;SDS011;10715;48.546;9.896;2023-11-18T06:13:14;3.93;;;2.70;;
21114;SDS011;10715;48.546;9.896;2023-11-18T06:15:41;3.10;;;2.47;;
21114;SDS011;10715;48.546;9.896;2023-11-18T06:18:08;4.60;;;3.13;;
21114;SDS011;10715;48.546;9.896;2023-11-18T06:20:34;3.57;;;3.27;;
21114;SDS011;10715;48.546;9.896;2023-11-18T06:23:01;7.13;;;3.33;;
21114;SDS011;10715;48.546;9.896;2023-11-18T06:25:26;5.63;;;3.53;;
21114;SDS011;10715;48.546;9.896;2023-11-18T06:27:52;3.40;;;2.63;;
21114;SDS011;10715;48.546;9.896;2023-11-18T06:30:18;6.70;;;4.63;;
21114;SDS011;10715;48.546;9.896;2023-11-18T06:32:45;2.80;;;2.60;;
21114;SDS011;10715;48.546;9.896;2023-11-18T06:35:12;2.63;;;2.40;;
21114;SDS011;10715;48.546;9.896;2023-11-18T06:37:40;4.53;;;2.67;;
21114;SDS011;10715;48.546;9.896;2023-11-18T06:40:08;3.57;;;3.07;;
21114;SDS011;10715;48.546;9.896;2023-11-18T06:42:44;2.97;;;2.77;;
21114;SDS011;10715;48.546;9.896;2023-11-18T06:45:12;4.40;;;2.90;;
21114;SDS011;10715;48.546;9.896;2023-11-18T06:47:38;3.20;;;2.47;;
21114;SDS011;10715;48.546;9.896;2023-11-18T06:50:08;2.53;;;2.13;;
21114;SDS011;10715;48.546;9.896;2023-11-18T06:52:38;1.77;;;1.60;;
21114;SDS011;10715;48.546;9.896;2023-11-18T06:55:04;5.00;;;2.13;;
21114;SDS011;10715;48.546;9.896;2023-11-18T06:57:30;2.10;;;1.87;;
21114;SDS011;10715;48.546;9.896;2023-11-18T06:59:57;2.60;;;2.40;;
21114;SDS011;10715;48.546;9.896;2023-11-18T07:02:23;3.20;;;2.40;;
21114;SDS011;10715;48.546;9.896;2023-11-18T07:04:48;2.40;;;2.20;;
21114;SDS011;10715;48.546;9.896;2023-11-18T07:07:14;3.90;;;2.90;;
21114;SDS011;10715;48.546;9.896;2023-11-18T07:09:41;2.70;;;2.50;;
21114;SDS011;10715;48.546;9.896;2023-11-18T07:12:09;3.87;;;2.47;;
21114;SDS011;10715;48.546;9.896;2023-11-18T07:14:35;1.90;;;1.77;;
21114;SDS011;10715;48.546;9.896;2023-11-18T07:17:01;3.40;;;3.10;;
21114;SDS011;10715;48.546;9.896;2023-11-18T07:19:26;3.20;;;2.70;;
21114;SDS011;10715;48.546;9.896;2023-11-18T07:21:53;6.10;;;4.30;;
21114;SDS011;10715;48.546;9.896;2023-11-18T07:24:19;4.63;;;3.80;;
21114;SDS011;10715;48.546;9.896;2023-11-18T07:26:45;5.37;;;3.30;;
21114;SDS011;10715;48.546;9.896;2023-11-18T07:29:11;5.77;;;4.63;;
21114;SDS011;10715;48.546;9.896;2023-11-18T07:31:36;15.93;;;5.10;;
21114;SDS011;10715;48.546;9.896;2023-11-18T07:34:05;12.40;;;2.40;;
21114;SDS011;10715;48.546;9.896;2023-11-18T07:36:31;6.20;;;2.50;;
21114;SDS011;10715;48.546;9.896;2023-11-18T07:38:58;19.80;;;4.60;;
21114;SDS011;10715;48.546;9.896;2023-11-18T07:41:26;6.13;;;4.30;;
21114;SDS011;10715;48.546;9.896;2023-11-18T07:43:52;12.77;;;7.03;;
21114;SDS011;10715;48.546;9.896;2023-11-18T07:46:24;9.03;;;4.77;;
21114;SDS011;10715;48.546;9.896;2023-11-18T07:48:50;6.30;;;4.73;;
21114;SDS011;10715;48.546;9.896;2023-11-18T07:51:17;5.43;;;4.87;;
21114;SDS011;10715;48.546;9.896;2023-11-18T07:53:46;6.37;;;4.40;;
21114;SDS011;10715;48.546;9.896;2023-11-18T07:56:15;5.27;;;4.70;;
21114;SDS011;10715;48.546;9.896;2023-11-18T07:58:42;6.60;;;5.67;;
21114;SDS011;10715;48.546;9.896;2023-11-18T08:01:11;8.00;;;5.93;;
21114;SDS011;10715;48.546;9.896;2023-11-18T08:03:37;6.00;;;4.07;;
21114;SDS011;10715;48.546;9.896;2023-11-18T08:06:06;3.77;;;3.47;;
21114;SDS011;10715;48.546;9.896;2023-11-18T08:08:32;2.73;;;2.40;;
21114;SDS011;10715;48.546;9.896;2023-11-18T08:10:59;5.73;;;2.63;;
21114;SDS011;10715;48.546;9.896;2023-11-18T08:13:25;2.83;;;2.57;;
21114;SDS011;10715;48.546;9.896;2023-11-18T08:15:53;6.73;;;2.90;;
21114;SDS011;10715;48.546;9.896;2023-11-18T08:18:19;4.10;;;3.50;;
21114;SDS011;10715;48.546;9.896;2023-11-18T08:20:47;3.80;;;3.50;;
21114;SDS011;10715;48.546;9.896;2023-11-18T08:23:12;3.50;;;3.20;;
21114;SDS011;10715;48.546;9.896;2023-11-18T08:25:38;4.27;;;3.73;;
21114;SDS011;10715;48.546;9.896;2023-11-18T08:28:05;5.53;;;4.13;;
21114;SDS011;10715;48.546;9.896;2023-11-18T08:30:32;7.07;;;5.20;;
21114;SDS011;10715;48.546;9.896;2023-11-18T08:32:58;7.30;;;5.13;;
21114;SDS011;10715;48.546;9.896;2023-11-18T08:35:24;18.53;;;9.80;;
21114;SDS011;10715;48.546;9.896;2023-11-18T08:37:50;14.10;;;8.57;;
21114;SDS011;10715;48.546;9.896;2023-11-18T08:40:17;13.80;;;6.00;;
21114;SDS011;10715;48.546;9.896;2023-11-18T08:42:50;12.73;;;6.73;;
21114;SDS011;10715;48.546;9.896;2023-11-18T08:45:17;7.60;;;3.17;;
21114;SDS011;10715;48.546;9.896;2023-11-18T08:47:44;5.13;;;3.43;;
21114;SDS011;10715;48.546;9.896;2023-11-18T08:50:16;24.97;;;10.03;;
21114;SDS011;10715;48.546;9.896;2023-11-18T08:52:43;81.37;;;16.23;;
21114;SDS011;10715;48.546;9.896;2023-11-18T08:55:18;164.80;;;25.53;;
21114;SDS011;10715;48.546;9.896;2023-11-18T08:57:51;5.40;;;3.87;;
21114;SDS011;10715;48.546;9.896;2023-11-18T09:00:29;4.90;;;3.57;;
21114;SDS011;10715;48.546;9.896;2023-11-18T09:03:12;4.17;;;3.20;;
21114;SDS011;10715;48.546;9.896;2023-11-18T09:05:48;6.00;;;2.37;;
21114;SDS011;10715;48.546;9.896;2023-11-18T09:08:27;3.10;;;2.33;;
21114;SDS011;10715;48.546;9.896;2023-11-18T09:10:57;16.93;;;4.53;;
21114;SDS011;10715;48.546;9.896;2023-11-18T09:13:25;5.33;;;4.00;;
21114;SDS011;10715;48.546;9.896;2023-11-18T09:15:58;4.60;;;3.33;;
21114;SDS011;10715;48.546;9.896;2023-11-18T09:18:30;2.70;;;2.53;;
21114;SDS011;10715;48.546;9.896;2023-11-18T09:20:58;2.73;;;2.23;;
21114;SDS011;10715;48.546;9.896;2023-11-18T09:23:26;4.10;;;2.50;;
21114;SDS011;10715;48.546;9.896;2023-11-18T09:25:52;33.50;;;7.23;;
21114;SDS011;10715;48.546;9.896;2023-11-18T09:28:19;48.47;;;7.73;;
21114;SDS011;10715;48.546;9.896;2023-11-18T09:30:45;8.67;;;1.80;;
21114;SDS011;10715;48.546;9.896;2023-11-18T09:33:18;4.10;;;1.87;;
21114;SDS011;10715;48.546;9.896;2023-11-18T09:36:00;1.93;;;1.67;;
21114;SDS011;10715;48.546;9.896;2023-11-18T09:38:36;3.47;;;1.13;;
21114;SDS011;10715;48.546;9.896;2023-11-18T09:41:04;6.40;;;1.90;;
21114;SDS011;10715;48.546;9.896;2023-11-18T09:43:39;1.53;;;1.17;;
21114;SDS011;10715;48.546;9.896;2023-11-18T09:49:02;8.27;;;2.60;;
21114;SDS011;10715;48.546;9.896;2023-11-18T09:51:40;9.70;;;4.40;;
21114;SDS011;10715;48.546;9.896;2023-11-18T09:54:23;39.50;;;7.83;;
21114;SDS011;10715;48.546;9.896;2023-11-18T10:02:12;19.83;;;6.87;;
21114;SDS011;10715;48.546;9.896;2023-11-18T10:04:39;13.60;;;3.43;;
21114;SDS011;10715;48.546;9.896;2023-11-18T10:07:07;23.80;;;6.30;;
21114;SDS011;10715;48.546;9.896;2023-11-18T10:09:35;6.43;;;3.97;;
21114;SDS011;10715;48.546;9.896;2023-11-18T10:12:05;74.90;;;16.53;;
21114;SDS011;10715;48.546;9.896;2023-11-18T10:14:36;24.80;;;7.37;;
21114;SDS011;10715;48.546;9.896;2023-11-18T10:17:06;15.57;;;6.93;;
21114;SDS011;10715;48.546;9.896;2023-11-18T10:22:27;6.50;;;4.30;;
21114;SDS011;10715;48.546;9.896;2023-11-18T10:24:54;30.60;;;7.20;;
21114;SDS011;10715;48.546;9.896;2023-11-18T10:27:22;12.20;;;5.80;;
21114;SDS011;10715;48.546;9.896;2023-11-18T10:29:51;9.00;;;5.37;;
21114;SDS011;10715;48.546;9.896;2023-11-18T10:32:28;23.53;;;7.53;;
21114;SDS011;10715;48.546;9.896;2023-11-18T10:34:57;21.00;;;7.13;;
21114;SDS011;10715;48.546;9.896;2023-11-18T10:37:26;5.70;;;5.10;;
21114;SDS011;10715;48.546;9.896;2023-11-18T10:39:55;7.50;;;5.50;;
21114;SDS011;10715;48.546;9.896;2023-11-18T10:42:22;121.67;;;17.87;;
21114;SDS011;10715;48.546;9.896;2023-11-18T10:44:58;9.30;;;5.13;;
21114;SDS011;10715;48.546;9.896;2023-11-18T10:47:26;10.90;;;7.60;;
21114;SDS011;10715;48.546;9.896;2023-11-18T10:49:54;10.03;;;7.23;;
21114;SDS011;10715;48.546;9.896;2023-11-18T10:52:26;9.80;;;4.20;;
21114;SDS011;10715;48.546;9.896;2023-11-18T10:54:56;36.03;;;10.03;;
21114;SDS011;10715;48.546;9.896;2023-11-18T10:57:22;17.27;;;7.17;;
21114;SDS011;10715;48.546;9.896;2023-11-18T11:00:02;23.70;;;8.40;;
21114;SDS011;10715;48.546;9.896;2023-11-18T11:02:38;16.90;;;8.80;;
21114;SDS011;10715;48.546;9.896;2023-11-18T11:05:10;19.30;;;10.17;;
21114;SDS011;10715;48.546;9.896;2023-11-18T11:07:44;43.73;;;11.63;;
21114;SDS011;10715;48.546;9.896;2023-11-18T11:10:10;15.90;;;7.87;;
21114;SDS011;10715;48.546;9.896;2023-11-18T11:12:51;20.70;;;8.60;;
21114;SDS011;10715;48.546;9.896;2023-11-18T11:15:29;21.73;;;10.93;;
21114;SDS011;10715;48.546;9.896;2023-11-18T11:17:58;18.60;;;7.10;;
21114;SDS011;10715;48.546;9.896;2023-11-18T11:20:34;16.40;;;8.53;;
21114;SDS011;10715;48.546;9.896;2023-11-18T11:25:41;15.23;;;7.90;;
21114;SDS011;10715;48.546;9.896;2023-11-18T11:28:20;23.80;;;10.10;;
21114;SDS011;10715;48.546;9.896;2023-11-18T11:30:50;12.87;;;8.37;;
21114;SDS011;10715;48.546;9.896;2023-11-18T11:33:41;8.60;;;5.97;;
21114;SDS011;10715;48.546;9.896;2023-11-18T11:36:11;6.93;;;4.87;;
21114;SDS011;10715;48.546;9.896;2023-11-18T11:38:42;10.63;;;3.93;;
21114;SDS011;10715;48.546;9.896;2023-11-18T11:41:11;22.93;;;6.03;;
21114;SDS011;10715;48.546;9.896;2023-11-18T11:43:44;10.43;;;7.17;;
21114;SDS011;10715;48.546;9.896;2023-11-18T11:46:13;20.67;;;6.67;;
21114;SDS011;10715;48.546;9.896;2023-11-18T11:48:43;4.97;;;3.90;;
21114;SDS011;10715;48.546;9.896;2023-11-18T11:51:11;6.43;;;4.13;;
21114;SDS011;10715;48.546;9.896;2023-11-18T11:56:45;8.40;;;4.87;;
21114;SDS011;10715;48.546;9.896;2023-11-18T11:59:12;9.20;;;4.80;;
21114;SDS011;10715;48.546;9.896;2023-11-18T12:01:41;10.13;;;5.77;;
21114;SDS011;10715;48.546;9.896;2023-11-18T12:04:12;6.50;;;4.03;;
21114;SDS011;10715;48.546;9.896;2023-11-18T12:06:47;6.10;;;4.33;;
21114;SDS011;10715;48.546;9.896;2023-11-18T12:09:13;7.83;;;4.63;;
21114;SDS011;10715;48.546;9.896;2023-11-18T12:11:48;6.07;;;4.00;;
21114;SDS011;10715;48.546;9.896;2023-11-18T12:14:15;12.83;;;5.50;;
21114;SDS011;10715;48.546;9.896;2023-11-18T12:19:49;9.30;;;4.07;;
21114;SDS011;10715;48.546;9.896;2023-11-18T12:22:16;5.80;;;3.23;;
21114;SDS011;10715;48.546;9.896;2023-11-18T12:30:50;6.37;;;3.23;;
21114;SDS011;10715;48.546;9.896;2023-11-18T12:35:25;7.53;;;4.13;;
21114;SDS011;10715;48.546;9.896;2023-11-18T12:49:07;9.57;;;3.80;;
21114;SDS011;10715;48.546;9.896;2023-11-18T12:51:45;4.20;;;3.00;;
21114;SDS011;10715;48.546;9.896;2023-11-18T12:54:14;4.90;;;3.33;;
21114;SDS011;10715;48.546;9.896;2023-11-18T12:56:41;5.07;;;3.10;;
21114;SDS011;10715;48.546;9.896;2023-11-18T12:59:14;6.43;;;4.50;;
21114;SDS011;10715;48.546;9.896;2023-11-18T13:01:52;3.33;;;3.03;;
21114;SDS011;10715;48.546;9.896;2023-11-18T13:04:22;3.70;;;3.27;;
21114;SDS011;10715;48.546;9.896;2023-11-18T13:06:49;7.30;;;3.97;;
21114;SDS011;10715;48.546;9.896;2023-11-18T13:09:19;5.87;;;3.17;;
21114;SDS011;10715;48.546;9.896;2023-11-18T13:12:01;3.70;;;2.73;;
21114;SDS011;10715;48.546;9.896;2023-11-18T13:14:33;5.20;;;2.93;;
21114;SDS011;10715;48.546;9.896;2023-11-18T13:17:04;8.37;;;4.03;;
21114;SDS011;10715;48.546;9.896;2023-11-18T13:19:34;6.60;;;2.87;;
21114;SDS011;10715;48.546;9.896;2023-11-18T13:22:07;3.13;;;2.77;;
21114;SDS011;10715;48.546;9.896;2023-11-18T13:24:37;5.40;;;2.50;;
21114;SDS011;10715;48.546;9.896;2023-11-18T13:27:05;12.40;;;2.97;;
21114;SDS011;10715;48.546;9.896;2023-11-18T13:29:36;2.90;;;2.50;;
21114;SDS011;10715;48.546;9.896;2023-11-18T13:32:07;3.30;;;2.87;;
21114;SDS011;10715;48.546;9.896;2023-11-18T13:34:36;2.27;;;2.07;;
21114;SDS011;10715;48.546;9.896;2023-11-18T13:37:04;4.20;;;2.43;;
21114;SDS011;10715;48.546;9.896;2023-11-18T13:39:32;3.73;;;2.10;;
21114;SDS011;10715;48.546;9.896;2023-11-18T13:42:19;14.27;;;3.10;;
21114;SDS011;10715;48.546;9.896;2023-11-18T13:44:47;4.83;;;2.40;;
21114;SDS011;10715;48.546;9.896;2023-11-18T13:47:17;13.13;;;1.93;;
21114;SDS011;10715;48.546;9.896;2023-11-18T13:49:43;9.90;;;1.83;;
21114;SDS011;10715;48.546;9.896;2023-11-18T13:52:12;3.83;;;3.53;;
21114;SDS011;10715;48.546;9.896;2023-11-18T13:54:41;4.70;;;3.03;;
21114;SDS011;10715;48.546;9.896;2023-11-18T13:57:10;4.23;;;2.10;;
21114;SDS011;10715;48.546;9.896;2023-11-18T13:59:36;6.43;;;2.73;;
21114;SDS011;10715;48.546;9.896;2023-11-18T14:02:03;22.73;;;6.63;;
21114;SDS011;10715;48.546;9.896;2023-11-18T14:04:30;23.37;;;6.73;;
21114;SDS011;10715;48.546;9.896;2023-11-18T14:07:02;13.80;;;4.47;;
21114;SDS011;10715;48.546;9.896;2023-11-18T14:09:34;11.00;;;6.23;;
21114;SDS011;10715;48.546;9.896;2023-11-18T14:12:09;10.57;;;6.33;;
21114;SDS011;10715;48.546;9.896;2023-11-18T14:14:40;33.27;;;7.03;;
21114;SDS011;10715;48.546;9.896;2023-11-18T14:17:06;79.50;;;12.50;;
21114;SDS011;10715;48.546;9.896;2023-11-18T14:19:35;30.13;;;7.50;;
21114;SDS011;10715;48.546;9.896;2023-11-18T14:22:03;18.03;;;5.27;;
21114;SDS011;10715;48.546;9.896;2023-11-18T14:24:32;4.70;;;3.80;;
21114;SDS011;10715;48.546;9.896;2023-11-18T14:26:59;5.40;;;4.10;;
21114;SDS011;10715;48.546;9.896;2023-11-18T14:29:24;8.97;;;3.63;;
21114;SDS011;10715;48.546;9.896;2023-11-18T14:31:52;6.17;;;3.70;;
21114;SDS011;10715;48.546;9.896;2023-11-18T14:34:19;10.00;;;4.93;;
21114;SDS011;10715;48.546;9.896;2023-11-18T14:36:45;7.13;;;4.00;;
21114;SDS011;10715;48.546;9.896;2023-11-18T14:39:11;11.70;;;3.67;;
21114;SDS011;10715;48.546;9.896;2023-11-18T14:41:43;30.53;;;6.80;;
21114;SDS011;10715;48.546;9.896;2023-11-18T14:44:10;23.43;;;3.90;;
21114;SDS011;10715;48.546;9.896;2023-11-18T14:46:38;7.53;;;4.67;;
21114;SDS011;10715;48.546;9.896;2023-11-18T14:49:06;27.30;;;5.43;;
21114;SDS011;10715;48.546;9.896;2023-11-18T14:51:32;204.50;;;27.73;;
21114;SDS011;10715;48.546;9.896;2023-11-18T14:53:59;23.63;;;7.07;;
21114;SDS011;10715;48.546;9.896;2023-11-18T14:56:25;9.97;;;5.50;;
21114;SDS011;10715;48.546;9.896;2023-11-18T14:58:53;9.33;;;5.00;;
21114;SDS011;10715;48.546;9.896;2023-11-18T15:01:19;5.93;;;3.53;;
21114;SDS011;10715;48.546;9.896;2023-11-18T15:03:45;3.10;;;2.60;;
21114;SDS011;10715;48.546;9.896;2023-11-18T15:06:11;5.83;;;3.20;;
21114;SDS011;10715;48.546;9.896;2023-11-18T15:08:37;5.73;;;3.47;;
21114;SDS011;10715;48.546;9.896;2023-11-18T15:11:04;6.73;;;2.40;;
21114;SDS011;10715;48.546;9.896;2023-11-18T15:13:32;4.10;;;2.80;;
21114;SDS011;10715;48.546;9.896;2023-11-18T15:15:58;3.07;;;2.17;;
21114;SDS011;10715;48.546;9.896;2023-11-18T15:18:23;1.83;;;1.73;;
21114;SDS011;10715;48.546;9.896;2023-11-18T15:20:49;2.57;;;2.00;;
21114;SDS011;10715;48.546;9.896;2023-11-18T15:23:17;4.20;;;2.17;;
21114;SDS011;10715;48.546;9.896;2023-11-18T15:25:43;4.97;;;3.50;;
21114;SDS011;10715;48.546;9.896;2023-11-18T15:28:09;4.50;;;2.43;;
21114;SDS011;10715;48.546;9.896;2023-11-18T15:30:39;3.30;;;3.00;;
21114;SDS011;10715;48.546;9.896;2023-11-18T15:33:05;2.37;;;2.17;;
21114;SDS011;10715;48.546;9.896;2023-11-18T15:35:36;7.67;;;2.23;;